createdAt,value
2018-12-12T00:00:33.336Z,0.81
2018-12-12T00:03:04.283Z,0.86
2018-12-12T00:05:35.178Z,0.84
2018-12-12T00:08:06.172Z,0.80
2018-12-12T00:10:37.234Z,0.82
2018-12-12T00:13:07.321Z,0.77
2018-12-12T00:18:37.484Z,0.76
2018-12-12T00:21:09.399Z,0.74
2018-12-12T00:23:45.279Z,0.71
2018-12-12T00:26:16.425Z,0.72
2018-12-12T00:28:47.630Z,0.71
2018-12-12T00:31:18.078Z,0.75
2018-12-12T00:33:48.557Z,0.80
2018-12-12T00:36:19.021Z,0.85
2018-12-12T00:38:49.577Z,0.79
2018-12-12T00:41:20.268Z,0.72
2018-12-12T00:43:50.714Z,0.68
2018-12-12T00:46:21.283Z,0.74
2018-12-12T00:48:51.461Z,0.71
2018-12-12T00:51:25.297Z,0.76
2018-12-12T00:53:57.429Z,0.81
2018-12-12T00:56:35.337Z,0.80
2018-12-12T00:59:06.509Z,0.73
2018-12-12T01:01:36.516Z,0.77
2018-12-12T01:04:07.557Z,0.64
2018-12-12T01:06:38.510Z,0.61
2018-12-12T01:09:09.197Z,0.68
2018-12-12T01:11:44.616Z,0.73
2018-12-12T01:14:16.523Z,0.73
2018-12-12T01:16:46.559Z,0.74
2018-12-12T01:19:18.087Z,0.71
2018-12-12T01:21:48.769Z,0.61
2018-12-12T01:24:19.505Z,0.67
2018-12-12T01:26:49.664Z,0.64
2018-12-12T01:29:26.425Z,0.78
2018-12-12T01:31:57.667Z,0.74
2018-12-12T01:34:28.711Z,0.77
2018-12-12T01:37:01.936Z,0.71
2018-12-12T01:39:32.634Z,0.71
2018-12-12T01:42:03.656Z,0.68
2018-12-12T01:44:38.500Z,0.66
2018-12-12T01:47:09.572Z,0.68
2018-12-12T01:49:41.346Z,0.69
2018-12-12T01:52:13.936Z,0.64
2018-12-12T01:54:46.196Z,0.66
2018-12-12T01:57:18.146Z,0.69
2018-12-12T01:59:48.707Z,0.69
2018-12-12T02:02:18.757Z,0.65
2018-12-12T02:04:48.766Z,0.63
2018-12-12T02:07:20.085Z,0.63
2018-12-12T02:09:51.719Z,0.58
2018-12-12T02:12:21.794Z,0.62
2018-12-12T02:14:57.268Z,0.63
2018-12-12T02:17:28.886Z,0.67
2018-12-12T02:19:58.947Z,0.68
2018-12-12T02:22:29.838Z,0.67
2018-12-12T02:25:00.806Z,0.62
2018-12-12T02:27:31.698Z,0.64
2018-12-12T02:30:02.189Z,0.69
2018-12-12T02:32:33.034Z,0.69
2018-12-12T02:35:03.813Z,0.68
2018-12-12T02:37:35.198Z,0.63
2018-12-12T02:40:05.932Z,0.59
2018-12-12T02:42:35.993Z,0.63
2018-12-12T02:45:07.014Z,0.61
2018-12-12T02:47:37.029Z,0.69
2018-12-12T02:50:08.064Z,0.70
2018-12-12T02:52:38.498Z,0.71
2018-12-12T02:55:09.093Z,0.59
2018-12-12T02:57:39.619Z,0.64
2018-12-12T03:00:10.587Z,0.69
2018-12-12T03:02:41.478Z,0.71
2018-12-12T03:05:11.472Z,0.66
2018-12-12T03:07:42.054Z,0.65
2018-12-12T03:10:12.561Z,0.63
2018-12-12T03:12:42.613Z,0.74
2018-12-12T03:15:13.791Z,0.68
2018-12-12T03:17:44.329Z,0.66
2018-12-12T03:20:14.950Z,0.66
2018-12-12T03:22:45.416Z,0.69
2018-12-12T03:25:16.262Z,0.64
2018-12-12T03:27:46.940Z,0.69
2018-12-12T03:30:17.200Z,0.66
2018-12-12T03:32:51.039Z,0.70
2018-12-12T03:35:22.116Z,0.70
2018-12-12T03:37:52.112Z,0.73
2018-12-12T03:40:23.700Z,0.73
2018-12-12T03:42:54.689Z,0.68
2018-12-12T03:45:25.221Z,0.67
2018-12-12T03:47:56.092Z,0.61
2018-12-12T03:50:26.398Z,0.65
2018-12-12T03:52:57.808Z,0.51
2018-12-12T03:55:28.228Z,0.74
2018-12-12T03:58:01.256Z,0.68
2018-12-12T04:00:32.249Z,0.72
2018-12-12T04:03:02.277Z,0.74
2018-12-12T04:05:33.430Z,0.64
2018-12-12T04:08:04.333Z,0.75
2018-12-12T04:10:37.348Z,0.69
2018-12-12T04:13:11.032Z,0.70
2018-12-12T04:15:41.503Z,0.74
2018-12-12T04:18:12.424Z,0.75
2018-12-12T04:20:52.244Z,0.77
2018-12-12T04:23:28.052Z,0.69
2018-12-12T04:26:09.298Z,0.71
2018-12-12T04:28:55.207Z,0.77
2018-12-12T04:31:43.095Z,0.79
2018-12-12T04:34:29.183Z,0.76
2018-12-12T04:40:28.546Z,0.63
2018-12-12T04:43:13.792Z,0.66
2018-12-12T04:46:05.138Z,0.77
2018-12-12T04:48:41.075Z,0.69
2018-12-12T04:51:25.250Z,0.66
2018-12-12T04:54:11.055Z,0.69
2018-12-12T04:56:55.008Z,0.72
2018-12-12T04:59:32.375Z,0.75
2018-12-12T05:02:04.405Z,0.72
2018-12-12T05:04:39.632Z,0.74
2018-12-12T05:07:22.760Z,0.72
2018-12-12T05:10:06.457Z,0.69
2018-12-12T05:12:54.780Z,0.71
2018-12-12T05:15:36.426Z,0.77
2018-12-12T05:18:24.507Z,0.77
2018-12-12T05:20:55.647Z,0.78
2018-12-12T05:23:26.638Z,0.70
2018-12-12T05:25:58.988Z,0.71
2018-12-12T05:28:30.813Z,0.58
2018-12-12T05:31:04.580Z,0.55
2018-12-12T05:33:34.653Z,0.57
2018-12-12T05:36:05.924Z,0.61
2018-12-12T05:38:36.555Z,0.63
2018-12-12T05:41:06.566Z,0.63
2018-12-12T05:43:37.603Z,0.69
2018-12-12T05:46:11.406Z,0.68
2018-12-12T05:48:41.904Z,0.68
2018-12-12T05:51:12.743Z,0.66
2018-12-12T05:53:42.749Z,0.81
2018-12-12T05:56:14.733Z,0.78
2018-12-12T05:58:45.778Z,0.72
2018-12-12T06:01:18.791Z,0.71
2018-12-12T06:03:49.813Z,0.65
2018-12-12T06:06:26.825Z,0.61
2018-12-12T06:08:56.897Z,0.59
2018-12-12T06:11:27.852Z,0.62
2018-12-12T06:13:58.682Z,0.62
2018-12-12T06:16:28.809Z,0.65
2018-12-12T06:19:02.637Z,0.65
2018-12-12T06:21:32.904Z,0.62
2018-12-12T06:24:06.685Z,0.62
2018-12-12T06:26:37.523Z,0.64
2018-12-12T06:29:07.977Z,0.64
2018-12-12T06:31:38.841Z,0.65
2018-12-12T06:34:08.893Z,0.67
2018-12-12T06:36:39.984Z,0.67
2018-12-12T06:39:15.763Z,0.69
2018-12-12T06:41:46.132Z,0.72
2018-12-12T06:44:17.859Z,0.69
2018-12-12T06:46:49.070Z,0.71
2018-12-12T06:49:19.087Z,0.70
2018-12-12T06:51:49.106Z,0.75
2018-12-12T06:54:23.471Z,0.76
2018-12-12T06:56:55.080Z,0.73
2018-12-12T06:59:25.085Z,0.51
2018-12-12T07:01:55.130Z,0.60
2018-12-12T07:04:26.042Z,0.46
2018-12-12T07:06:57.740Z,0.33
2018-12-12T07:09:28.121Z,0.22
2018-12-12T07:12:01.000Z,0.19
2018-12-12T07:14:32.089Z,0.23
2018-12-12T07:17:03.307Z,0.32
2018-12-12T07:19:36.952Z,0.37
2018-12-12T07:22:07.100Z,0.09
2018-12-12T07:24:40.992Z,0.19
2018-12-12T07:27:11.337Z,0.17
2018-12-12T07:29:42.325Z,0.15
2018-12-12T07:32:15.986Z,0.26
2018-12-12T07:34:46.065Z,0.23
2018-12-12T07:37:17.127Z,0.29
2018-12-12T07:39:53.418Z,0.41
2018-12-12T07:42:27.146Z,0.44
2018-12-12T07:44:58.245Z,0.44
2018-12-12T07:47:31.212Z,0.48
2018-12-12T07:50:02.172Z,0.51
2018-12-12T07:52:33.305Z,0.45
2018-12-12T07:55:06.402Z,0.35
2018-12-12T07:57:37.353Z,0.40
2018-12-12T08:00:11.197Z,0.33
2018-12-12T08:02:41.865Z,0.29
2018-12-12T08:05:13.388Z,0.36
2018-12-12T08:07:49.586Z,0.36
2018-12-12T08:10:23.841Z,0.41
2018-12-12T08:13:00.505Z,0.44
2018-12-12T08:15:39.088Z,0.39
2018-12-12T08:18:11.166Z,0.48
2018-12-12T08:20:42.244Z,0.54
2018-12-12T08:23:14.635Z,0.57
2018-12-12T08:25:51.045Z,0.60
2018-12-12T08:28:26.508Z,0.63
2018-12-12T08:31:03.884Z,0.65
2018-12-12T08:33:38.403Z,0.67
2018-12-12T08:36:09.181Z,0.68
2018-12-12T08:38:45.246Z,0.72
2018-12-12T08:41:24.379Z,0.74
2018-12-12T08:44:01.351Z,0.75
2018-12-12T08:46:33.057Z,0.74
2018-12-12T08:49:09.925Z,0.76
2018-12-12T08:51:43.091Z,0.76
2018-12-12T08:54:18.820Z,0.82
2018-12-12T08:56:52.595Z,0.84
2018-12-12T08:59:27.640Z,0.84
2018-12-12T09:02:00.482Z,0.84
2018-12-12T09:04:40.068Z,0.86
2018-12-12T09:07:10.667Z,0.90
2018-12-12T09:09:42.648Z,0.95
2018-12-12T09:12:16.580Z,0.99
2018-12-12T09:14:48.490Z,1.01
2018-12-12T09:17:18.617Z,1.01
2018-12-12T09:19:48.685Z,1.01
2018-12-12T09:22:20.673Z,1.06
2018-12-12T09:27:51.533Z,1.17
2018-12-12T09:30:22.749Z,1.13
2018-12-12T09:32:53.473Z,1.20
2018-12-12T09:35:24.721Z,1.13
2018-12-12T09:37:54.741Z,1.22
2018-12-12T09:40:28.612Z,1.24
2018-12-12T09:42:59.774Z,1.15
2018-12-12T09:45:29.786Z,1.09
2018-12-12T09:48:00.780Z,1.14
2018-12-12T09:50:30.924Z,1.23
2018-12-12T09:53:09.696Z,1.23
2018-12-12T09:55:41.905Z,1.29
2018-12-12T09:58:17.587Z,1.34
2018-12-12T10:00:48.898Z,1.29
2018-12-12T10:03:22.701Z,1.33
2018-12-12T10:05:52.987Z,1.36
2018-12-12T10:08:27.921Z,1.34
2018-12-12T10:11:01.649Z,1.36
2018-12-12T10:13:31.899Z,1.33
2018-12-12T10:16:04.983Z,1.35
2018-12-12T10:18:36.516Z,1.30
2018-12-12T10:21:10.088Z,1.34
2018-12-12T10:23:42.305Z,1.26
2018-12-12T10:26:13.328Z,1.36
2018-12-12T10:28:43.828Z,1.41
2018-12-12T10:31:14.393Z,1.41
2018-12-12T10:33:49.070Z,1.42
2018-12-12T10:36:23.218Z,1.39
2018-12-12T10:38:56.257Z,1.43
2018-12-12T10:41:27.750Z,1.48
2018-12-12T10:44:00.995Z,1.49
2018-12-12T10:46:31.122Z,1.52
2018-12-12T10:49:02.112Z,1.58
2018-12-12T10:51:37.798Z,1.61
2018-12-12T10:54:09.150Z,1.64
2018-12-12T10:56:45.200Z,1.69
2018-12-12T10:59:16.111Z,1.72
2018-12-12T11:01:48.510Z,1.74
2018-12-12T11:04:20.363Z,1.76
2018-12-12T11:06:51.166Z,1.79
2018-12-12T11:09:25.005Z,1.80
2018-12-12T11:11:56.853Z,1.90
2018-12-12T11:14:28.405Z,1.75
2018-12-12T11:17:01.945Z,1.80
2018-12-12T11:19:33.107Z,1.77
2018-12-12T11:22:04.145Z,1.70
2018-12-12T11:24:35.175Z,1.74
2018-12-12T11:27:05.270Z,1.77
2018-12-12T11:29:36.206Z,1.87
2018-12-12T11:32:07.160Z,1.93
2018-12-12T11:34:37.200Z,1.83
2018-12-12T11:37:08.347Z,1.71
2018-12-12T11:39:39.252Z,1.74
2018-12-12T11:42:13.131Z,1.77
2018-12-12T11:47:44.868Z,1.86
2018-12-12T11:50:15.300Z,1.88
2018-12-12T11:52:49.162Z,1.92
2018-12-12T11:55:19.488Z,1.94
2018-12-12T11:57:53.151Z,1.97
2018-12-12T12:00:23.311Z,1.99
2018-12-12T12:02:54.233Z,1.95
2018-12-12T12:05:25.367Z,1.99
2018-12-12T12:08:04.364Z,1.84
2018-12-12T12:10:34.560Z,1.61
2018-12-12T12:13:09.548Z,1.72
2018-12-12T12:15:42.513Z,1.65
2018-12-12T12:18:13.471Z,1.59
2018-12-12T12:20:43.505Z,1.59
2018-12-12T12:23:14.369Z,1.67
2018-12-12T12:25:46.428Z,1.69
2018-12-12T12:28:18.491Z,1.68
2018-12-12T12:30:49.546Z,1.73
2018-12-12T12:33:21.250Z,1.73
2018-12-12T12:35:52.668Z,1.70
2018-12-12T12:38:27.625Z,1.62
2018-12-12T12:41:01.453Z,1.63
2018-12-12T12:43:32.444Z,1.63
2018-12-12T12:46:06.421Z,1.60
2018-12-12T12:48:37.705Z,1.62
2018-12-12T12:51:08.753Z,1.62
2018-12-12T12:53:41.651Z,1.66
2018-12-12T12:59:15.585Z,1.66
2018-12-12T13:01:46.899Z,1.67
2018-12-12T13:04:19.687Z,1.67
2018-12-12T13:06:50.183Z,1.64
2018-12-12T13:09:21.500Z,1.67
2018-12-12T13:11:51.994Z,1.64
2018-12-12T13:14:22.776Z,1.66
2018-12-12T13:16:52.779Z,1.62
2018-12-12T13:19:23.880Z,1.62
2018-12-12T13:21:54.625Z,1.62
2018-12-12T13:24:24.731Z,1.63
2018-12-12T13:26:55.743Z,1.62
2018-12-12T13:29:35.581Z,1.62
2018-12-12T13:32:06.646Z,1.62
2018-12-12T13:34:36.845Z,1.66
2018-12-12T13:37:07.733Z,1.68
2018-12-12T13:39:38.808Z,1.69
2018-12-12T13:42:11.948Z,1.70
2018-12-12T13:44:43.006Z,1.71
2018-12-12T13:47:17.263Z,1.69
2018-12-12T13:49:46.865Z,1.70
2018-12-12T13:52:21.652Z,1.65
2018-12-12T13:54:53.940Z,1.64
2018-12-12T13:57:25.945Z,1.42
2018-12-12T13:59:57.093Z,1.27
2018-12-12T14:02:28.044Z,1.31
2018-12-12T14:04:58.886Z,1.21
2018-12-12T14:07:28.961Z,1.27
2018-12-12T14:09:59.312Z,1.32
2018-12-12T14:12:29.994Z,1.31
2018-12-12T14:15:03.896Z,1.30
2018-12-12T14:17:33.940Z,1.14
2018-12-12T14:20:05.467Z,1.05
2018-12-12T14:22:39.354Z,1.10
2018-12-12T14:25:11.913Z,1.20
2018-12-12T14:27:42.460Z,1.26
2018-12-12T14:30:12.984Z,1.29
2018-12-12T14:32:43.103Z,1.32
2018-12-12T14:35:19.901Z,1.33
2018-12-12T14:37:51.482Z,1.36
2018-12-12T14:40:23.985Z,1.37
2018-12-12T14:42:55.101Z,1.39
2018-12-12T14:45:26.029Z,1.39
2018-12-12T15:45:06.277Z,1.02
2018-12-12T15:50:35.679Z,1.03
2018-12-12T15:53:11.231Z,1.06
2018-12-12T15:55:42.364Z,1.06
2018-12-12T15:58:13.348Z,1.09
2018-12-12T16:00:43.425Z,1.09
2018-12-12T16:03:16.845Z,1.10
2018-12-12T16:05:49.420Z,1.10
2018-12-12T16:08:23.247Z,1.10
2018-12-12T16:10:54.257Z,1.09
2018-12-12T16:13:24.688Z,1.05
2018-12-12T16:15:55.418Z,1.04
2018-12-12T16:18:25.474Z,1.04
2018-12-12T16:20:55.534Z,1.03
2018-12-12T16:23:25.576Z,1.02
2018-12-12T16:25:57.952Z,1.04
2018-12-12T16:28:28.293Z,1.03
2018-12-12T16:30:58.425Z,1.01
2018-12-12T16:33:29.366Z,1.00
2018-12-12T16:36:00.030Z,1.00
2018-12-12T16:38:30.789Z,1.00
2018-12-12T16:41:00.848Z,1.00
2018-12-12T16:43:31.444Z,1.01
2018-12-12T16:46:01.489Z,1.01
2018-12-12T16:48:37.902Z,1.01
2018-12-12T16:51:08.509Z,1.01
2018-12-12T16:53:40.178Z,1.00
2018-12-12T16:56:10.832Z,1.02
2018-12-12T16:58:40.929Z,1.03
2018-12-12T17:01:17.905Z,1.01
2018-12-12T17:03:51.080Z,0.98
2018-12-12T17:06:25.521Z,0.96
2018-12-12T17:08:55.600Z,0.91
2018-12-12T17:11:26.687Z,0.92
2018-12-12T17:13:56.719Z,0.93
2018-12-12T17:16:30.517Z,0.96
2018-12-12T17:19:00.594Z,0.96
2018-12-12T17:21:31.737Z,0.96
2018-12-12T17:24:05.676Z,0.95
2018-12-12T17:26:36.774Z,0.94
2018-12-12T17:29:12.523Z,0.95
2018-12-12T17:31:43.367Z,0.97
2018-12-12T17:34:14.385Z,0.93
2018-12-12T17:36:57.631Z,0.89
2018-12-12T17:39:27.752Z,0.90
2018-12-12T17:41:57.793Z,0.93
2018-12-12T17:44:34.518Z,0.93
2018-12-12T17:47:18.570Z,0.93
2018-12-12T17:49:52.075Z,0.93
2018-12-12T17:52:23.751Z,0.94
2018-12-12T17:54:56.932Z,0.93
2018-12-12T17:57:27.875Z,0.91
2018-12-12T18:00:00.862Z,0.91
2018-12-12T18:02:36.941Z,0.90
2018-12-12T18:05:15.258Z,0.90
2018-12-12T18:07:43.856Z,0.88
2018-12-12T18:10:15.878Z,0.85
2018-12-12T18:12:46.955Z,0.83
2018-12-12T18:15:17.118Z,0.82
2018-12-12T18:17:56.017Z,0.79
2018-12-12T18:20:30.002Z,0.79
2018-12-12T18:23:07.255Z,0.78
2018-12-12T18:25:37.925Z,0.77
2018-12-12T18:28:08.032Z,0.76
2018-12-12T18:30:49.825Z,0.76
2018-12-12T18:33:27.554Z,0.79
2018-12-12T18:36:00.702Z,0.80
2018-12-12T18:38:32.277Z,0.81
2018-12-12T18:41:06.002Z,0.82
2018-12-12T18:43:42.854Z,0.82
2018-12-12T18:48:40.064Z,0.79
2018-12-12T18:51:10.208Z,0.73
2018-12-12T18:53:51.939Z,0.76
2018-12-12T18:56:23.113Z,0.79
2018-12-12T18:58:59.468Z,0.80
2018-12-12T19:01:33.952Z,0.80
2018-12-12T19:04:06.964Z,0.73
2018-12-12T19:06:37.398Z,0.76
2018-12-12T19:09:08.461Z,0.74
2018-12-12T19:11:44.342Z,0.75
2018-12-12T19:14:27.226Z,0.69
2018-12-12T19:16:58.358Z,0.64
2018-12-12T19:19:31.286Z,0.64
2018-12-12T19:22:08.605Z,0.66
2018-12-12T19:24:50.321Z,0.68
2018-12-12T19:27:21.482Z,0.69
2018-12-12T19:30:02.131Z,0.71
2018-12-12T19:32:42.032Z,0.84
2018-12-12T19:35:12.569Z,0.86
2018-12-12T19:37:50.616Z,0.85
2018-12-12T19:40:27.476Z,0.79
2018-12-12T19:43:01.537Z,0.74
2018-12-12T19:45:31.958Z,0.70
2018-12-12T19:48:02.647Z,0.67
2018-12-12T19:59:38.509Z,0.55
2018-12-12T20:02:09.669Z,0.55
2018-12-12T20:04:48.365Z,0.56
2018-12-12T20:07:26.048Z,0.59
2018-12-12T20:09:57.057Z,0.67
2018-12-12T20:12:29.821Z,0.64
2018-12-12T20:15:10.545Z,0.61
2018-12-12T20:17:46.464Z,0.56
2018-12-12T20:20:16.968Z,0.55
2018-12-12T20:22:47.697Z,0.50
2018-12-12T20:25:23.462Z,0.57
2018-12-12T20:27:53.540Z,0.56
2018-12-12T20:30:25.053Z,0.54
2018-12-12T20:32:59.119Z,0.53
2018-12-12T20:35:34.708Z,0.42
2018-12-12T20:38:14.483Z,0.41
2018-12-12T20:40:44.523Z,0.44
2018-12-12T20:43:15.710Z,0.42
2018-12-12T20:45:46.392Z,0.41
2018-12-12T20:48:16.577Z,0.41
2018-12-12T20:50:53.661Z,0.31
2018-12-12T20:53:24.627Z,0.31
2018-12-12T20:55:54.683Z,0.32
2018-12-12T20:58:25.625Z,0.34
2018-12-12T21:00:56.817Z,0.36
2018-12-12T21:03:27.816Z,0.34
2018-12-12T21:06:05.451Z,0.33
2018-12-12T21:08:38.419Z,0.34
2018-12-12T21:11:08.921Z,0.39
2018-12-12T21:13:39.653Z,0.41
2018-12-12T21:16:10.485Z,0.39
2018-12-12T21:18:41.017Z,0.36
2018-12-12T21:21:11.634Z,0.34
2018-12-12T21:23:42.177Z,0.33
2018-12-12T21:26:13.125Z,0.31
2018-12-12T21:28:43.150Z,0.33
2018-12-12T21:31:13.872Z,0.36
2018-12-12T21:33:43.992Z,0.37
2018-12-12T21:36:14.855Z,0.36
2018-12-12T21:38:45.739Z,0.35
2018-12-12T21:41:16.477Z,0.33
2018-12-12T21:43:47.081Z,0.32
2018-12-12T21:46:17.662Z,0.32
2018-12-12T21:48:48.328Z,0.33
2018-12-12T21:51:18.844Z,0.34
2018-12-12T21:53:49.557Z,0.38
2018-12-12T21:56:20.077Z,0.35
2018-12-12T22:01:58.022Z,0.33
2018-12-12T22:04:39.734Z,0.30
2018-12-12T22:07:10.984Z,0.27
2018-12-12T22:09:41.908Z,0.26
2018-12-12T22:12:20.814Z,0.18
2018-12-12T22:15:01.631Z,0.14
2018-12-12T22:17:38.360Z,0.15
2018-12-12T22:20:17.045Z,0.12
2018-12-12T22:22:58.015Z,0.15
2018-12-12T22:25:28.986Z,0.20
2018-12-12T22:28:00.115Z,0.23
2018-12-12T22:30:35.999Z,0.18
2018-12-12T22:33:07.142Z,0.16
2018-12-12T22:35:37.273Z,0.08
2018-12-12T22:38:07.964Z,0.09
2018-12-12T22:40:38.074Z,0.11
2018-12-12T22:43:09.000Z,0.11
2018-12-12T22:45:45.033Z,0.11
2018-12-12T22:48:20.538Z,0.11
2018-12-12T22:50:49.916Z,0.11
2018-12-12T22:53:20.014Z,0.14
2018-12-12T22:55:50.161Z,0.08
2018-12-12T22:58:27.878Z,0.05
2018-12-12T23:01:02.428Z,0.03
2018-12-12T23:03:35.484Z,0.02
2018-12-12T23:06:08.203Z,0.06
2018-12-12T23:08:49.141Z,0.01
2018-12-12T23:11:22.207Z,0.03
2018-12-12T23:13:58.736Z,0.00
2018-12-12T23:16:36.393Z,-0.02
2018-12-12T23:19:15.191Z,-0.06
2018-12-12T23:21:54.928Z,-0.04
2018-12-12T23:24:33.713Z,-0.03
2018-12-12T23:27:14.425Z,-0.07
2018-12-12T23:29:50.143Z,-0.05
2018-12-12T23:32:22.310Z,-0.03
2018-12-12T23:34:53.292Z,-0.02
2018-12-12T23:37:30.973Z,0.02
2018-12-12T23:40:03.327Z,-0.04
2018-12-12T23:42:34.090Z,-0.06
2018-12-12T23:45:04.737Z,-0.10
2018-12-12T23:47:35.344Z,-0.08
2018-12-12T23:50:06.000Z,-0.09
2018-12-12T23:52:36.888Z,-0.11
2018-12-12T23:55:07.217Z,-0.07
2018-12-12T23:57:37.569Z,-0.11
